Time;durP1;ratioP1;P1;durP2;ratioP2;P2;SDS_P1;SDS_P2;PMS_P1;PMS_P2;Temp;Humidity;BMP_temperature;BMP_pressure;BME280_temperature;BME280_humidity;BME280_pressure;Samples;Min_cycle;Max_cycle;Signal;HPM_P1;HPM_P2
2021/04/04 00:02:23;;;;;;;6.47;3.80;;;18.90;76.00;;;;;;5003565;27;124601;-55
2021/04/04 00:04:54;;;;;;;;;;;18.90;75.90;;;;;;5013529;28;117781;-43
2021/04/04 00:07:26;;;;;;;6.70;3.45;;;18.90;75.90;;;;;;5019737;27;110133;-51
2021/04/04 00:09:57;;;;;;;3.75;3.25;;;18.90;75.90;;;;;;5021396;28;124474;-55
2021/04/04 00:12:29;;;;;;;5.80;3.35;;;18.90;76.00;;;;;;5015381;28;125156;-43
2021/04/04 00:14:59;;;;;;;4.35;3.45;;;18.90;75.90;;;;;;5015882;28;116931;-43
2021/04/04 00:17:30;;;;;;;3.58;2.92;;;18.90;75.80;;;;;;5010745;28;108094;-52
2021/04/04 00:20:07;;;;;;;3.97;3.28;;;18.90;75.80;;;;;;5013829;28;125701;-54
2021/04/04 00:22:40;;;;;;;5.50;3.03;;;19.00;75.80;;;;;;5018265;28;124756;-44
2021/04/04 00:25:12;;;;;;;4.80;3.72;;;19.00;75.70;;;;;;5022515;28;116549;-52
2021/04/04 00:27:42;;;;;;;;;;;19.00;75.70;;;;;;5014883;28;108229;-44
2021/04/04 00:30:16;;;;;;;5.20;3.28;;;19.00;75.50;;;;;;5025556;28;126066;-43
2021/04/04 00:32:47;;;;;;;5.10;3.47;;;19.10;75.60;;;;;;5017142;27;124392;-43
2021/04/04 00:35:21;;;;;;;4.30;3.88;;;19.10;75.50;;;;;;4992855;28;117274;-44
2021/04/04 00:37:54;;;;;;;4.30;3.33;;;19.10;75.40;;;;;;5013170;28;110705;-44
2021/04/04 00:40:28;;;;;;;6.88;3.38;;;19.10;76.10;;;;;;5002214;28;123614;-44
2021/04/04 00:42:59;;;;;;;3.92;2.80;;;19.10;76.30;;;;;;5019708;28;124018;-50
2021/04/04 00:45:37;;;;;;;4.53;3.00;;;19.20;76.50;;;;;;4990747;28;116315;-44
2021/04/04 00:48:11;;;;;;;5.22;3.50;;;19.10;76.60;;;;;;5018059;28;96099;-44
2021/04/04 00:50:43;;;;;;;4.72;3.05;;;19.20;76.70;;;;;;5013472;27;126454;-51
2021/04/04 00:53:16;;;;;;;6.85;3.08;;;19.20;76.80;;;;;;5013257;27;122855;-44
2021/04/04 00:55:48;;;;;;;4.00;3.17;;;19.20;76.80;;;;;;5015759;27;118260;-44
2021/04/04 00:58:19;;;;;;;;;;;19.20;76.80;;;;;;5027459;28;109674;-54
2021/04/04 01:00:49;;;;;;;5.67;2.90;;;19.20;76.90;;;;;;5001590;28;125019;-44
2021/04/04 01:03:19;;;;;;;4.25;3.10;;;19.30;77.10;;;;;;5014822;28;124973;-44
2021/04/04 01:05:50;;;;;;;5.38;2.95;;;19.30;77.80;;;;;;5010038;28;117711;-44
2021/04/04 01:08:21;;;;;;;2.70;2.50;;;19.40;77.40;;;;;;5019251;28;108386;-44
2021/04/04 01:10:53;;;;;;;4.50;3.03;;;19.40;77.50;;;;;;5015362;28;124777;-44
2021/04/04 01:13:53;;;;;;;4.30;3.25;;;19.40;77.40;;;;;;5013749;28;124785;-44
2021/04/04 01:16:48;;;;;;;4.10;3.55;;;19.40;77.40;;;;;;5008176;27;116730;-44
2021/04/04 01:20:00;;;;;;;5.28;3.40;;;19.40;77.40;;;;;;5014797;28;110251;-44
2021/04/04 01:23:03;;;;;;;4.72;3.10;;;19.50;77.30;;;;;;5015547;28;125520;-46
2021/04/04 01:25:52;;;;;;;3.08;2.72;;;19.60;77.10;;;;;;5007080;28;124805;-45
2021/04/04 01:28:30;;;;;;;3.45;2.83;;;19.60;77.50;;;;;;5011288;28;116307;-52
2021/04/04 01:31:02;;;;;;;4.45;2.85;;;19.70;77.60;;;;;;5014900;28;109843;-44
2021/04/04 01:33:33;;;;;;;4.72;3.03;;;19.70;77.60;;;;;;5002717;28;124712;-44
2021/04/04 01:36:05;;;;;;;8.95;3.63;;;19.70;77.60;;;;;;5015541;27;124065;-45
2021/04/04 01:38:41;;;;;;;4.15;2.85;;;19.80;77.80;;;;;;5019663;28;115990;-54
2021/04/04 01:41:21;;;;;;;4.82;3.15;;;19.80;77.50;;;;;;5011739;28;109973;-44
2021/04/04 01:43:57;;;;;;;3.90;3.47;;;19.90;77.80;;;;;;5006919;28;124894;-44
2021/04/04 01:46:30;;;;;;;3.60;2.85;;;19.90;77.10;;;;;;5014681;27;123328;-45
2021/04/04 01:49:03;;;;;;;6.43;3.08;;;20.00;77.20;;;;;;5019244;28;118299;-50
2021/04/04 01:51:35;;;;;;;5.18;3.30;;;20.10;77.50;;;;;;5000718;28;108388;-44
2021/04/04 01:54:09;;;;;;;3.53;3.22;;;20.10;77.60;;;;;;5013164;28;125595;-44
2021/04/04 01:56:41;;;;;;;4.07;2.80;;;20.10;77.40;;;;;;5010639;28;123306;-44
2021/04/04 01:59:15;;;;;;;4.43;3.17;;;20.10;77.50;;;;;;5019499;28;116738;-45
2021/04/04 02:01:47;;;;;;;3.25;2.75;;;20.20;76.90;;;;;;5011324;27;109973;-45
2021/04/04 02:04:19;;;;;;;3.72;2.85;;;20.20;76.80;;;;;;5019504;28;126405;-45
2021/04/04 02:06:52;;;;;;;4.78;3.03;;;20.30;76.80;;;;;;5009361;28;125273;-51
2021/04/04 02:09:26;;;;;;;3.35;2.40;;;20.40;76.60;;;;;;5021791;28;117298;-45
2021/04/04 02:11:59;;;;;;;3.70;2.60;;;20.40;76.60;;;;;;5013748;28;109255;-44
2021/04/04 02:14:31;;;;;;;2.97;2.67;;;20.50;76.60;;;;;;5015797;27;123404;-55
2021/04/04 02:17:03;;;;;;;2.60;2.40;;;20.60;76.40;;;;;;5009676;27;123263;-56
2021/04/04 02:19:34;;;;;;;3.85;2.70;;;20.60;76.20;;;;;;5017685;28;115395;-51
2021/04/04 02:22:04;;;;;;;2.97;2.67;;;20.70;76.00;;;;;;5019916;28;109662;-51
2021/04/04 02:24:34;;;;;;;3.67;2.33;;;20.80;75.90;;;;;;5021705;28;126209;-53
2021/04/04 02:27:04;;;;;;;3.28;2.55;;;20.90;75.80;;;;;;5014354;28;125119;-45
2021/04/04 02:29:37;;;;;;;2.47;2.28;;;21.00;75.70;;;;;;5018097;27;115009;-53
2021/04/04 02:32:09;;;;;;;4.60;3.03;;;21.00;75.60;;;;;;5015981;28;108212;-62
2021/04/04 02:34:41;;;;;;;;;;;21.00;75.40;;;;;;5016954;28;124929;-51
2021/04/04 02:37:12;;;;;;;5.93;3.53;;;21.10;75.60;;;;;;5014010;28;123315;-51
2021/04/04 02:39:49;;;;;;;8.80;3.50;;;21.20;75.90;;;;;;5020828;27;117454;-51
2021/04/04 02:42:23;;;;;;;5.00;2.92;;;21.20;75.30;;;;;;5024268;28;109675;-51
2021/04/04 02:44:58;;;;;;;4.90;3.20;;;21.20;73.80;;;;;;5020081;28;124360;-53
2021/04/04 02:47:59;;;;;;;7.03;2.80;;;21.20;73.80;;;;;;5014061;27;124474;-51
2021/04/04 02:50:37;;;;;;;7.32;3.80;;;21.20;72.70;;;;;;5004322;27;116334;-51
2021/04/04 02:53:10;;;;;;;6.10;2.90;;;21.20;72.70;;;;;;5014626;28;110454;-51
2021/04/04 02:55:41;;;;;;;3.20;2.42;;;21.20;73.10;;;;;;5017783;27;124134;-52
2021/04/04 02:58:12;;;;;;;4.32;2.80;;;21.30;73.10;;;;;;5022883;28;123337;-50
2021/04/04 03:00:44;;;;;;;4.30;2.40;;;21.40;72.80;;;;;;5010026;28;116627;-43
2021/04/04 03:03:17;;;;;;;2.83;2.58;;;21.40;72.70;;;;;;5017299;28;109469;-43
2021/04/04 03:05:48;;;;;;;3.90;2.67;;;21.50;72.50;;;;;;5010283;28;125327;-51
2021/04/04 03:08:19;;;;;;;4.67;2.50;;;21.50;73.00;;;;;;5020101;28;125408;-43
2021/04/04 03:10:52;;;;;;;3.75;2.78;;;21.60;72.20;;;;;;5025999;27;116770;-43
2021/04/04 03:13:25;;;;;;;3.03;2.50;;;21.70;72.10;;;;;;5023757;28;109064;-42
2021/04/04 03:15:57;;;;;;;5.20;3.03;;;21.70;71.90;;;;;;5009481;28;125275;-42
2021/04/04 03:18:31;;;;;;;3.05;2.53;;;21.80;71.80;;;;;;5019790;28;125189;-43
2021/04/04 03:21:05;;;;;;;4.13;2.63;;;21.80;71.60;;;;;;5021959;28;117087;-50
2021/04/04 03:23:36;;;;;;;4.90;2.45;;;21.90;71.50;;;;;;5018518;28;110286;-43
2021/04/04 03:26:06;;;;;;;3.22;2.10;;;21.90;71.40;;;;;;5021279;27;123460;-42
2021/04/04 03:28:38;;;;;;;3.85;2.90;;;22.00;71.30;;;;;;5027847;27;124496;-42
2021/04/04 03:31:14;;;;;;;4.97;2.47;;;22.00;71.20;;;;;;5017206;27;119200;-43
2021/04/04 03:33:47;;;;;;;2.72;2.30;;;22.00;71.00;;;;;;5015298;28;109463;-43
2021/04/04 03:36:21;;;;;;;3.08;2.60;;;22.10;70.90;;;;;;5018956;27;125137;-43
2021/04/04 03:38:53;;;;;;;3.30;2.65;;;22.10;70.90;;;;;;5012136;28;124971;-43
2021/04/04 03:41:32;;;;;;;2.83;2.63;;;22.20;70.60;;;;;;5007627;28;116830;-43
2021/04/04 03:44:03;;;;;;;3.05;2.65;;;22.20;70.50;;;;;;5010853;28;109484;-48
2021/04/04 03:46:36;;;;;;;3.50;2.20;;;22.20;70.40;;;;;;5009970;28;123856;-42
2021/04/04 03:49:09;;;;;;;3.25;2.30;;;22.30;70.30;;;;;;5009401;28;123373;-42
2021/04/04 03:51:41;;;;;;;3.78;2.47;;;22.30;70.20;;;;;;4999427;28;116228;-43
2021/04/04 03:54:16;;;;;;;4.00;2.25;;;22.40;70.10;;;;;;5015082;28;107990;-43
2021/04/04 03:56:49;;;;;;;4.75;2.45;;;22.40;70.00;;;;;;5004522;28;123671;-42
2021/04/04 03:59:23;;;;;;;4.07;2.85;;;22.40;70.50;;;;;;5012289;28;124559;-42
2021/04/04 04:01:53;;;;;;;3.83;2.25;;;22.50;69.90;;;;;;5005469;27;116732;-43
2021/04/04 04:04:25;;;;;;;3.92;2.30;;;22.50;69.70;;;;;;5010276;28;108939;-43
2021/04/04 04:06:56;;;;;;;2.80;2.20;;;22.50;69.70;;;;;;5006408;28;127095;-42
2021/04/04 04:09:30;;;;;;;3.45;2.83;;;22.60;69.60;;;;;;5008677;28;125337;-42
2021/04/04 04:12:01;;;;;;;3.33;2.60;;;22.60;69.40;;;;;;5007983;28;117210;-42
2021/04/04 04:14:33;;;;;;;4.25;2.40;;;22.60;69.30;;;;;;5013821;28;109205;-42
2021/04/04 04:17:07;;;;;;;3.50;2.50;;;22.70;69.30;;;;;;4971898;27;123809;-51
2021/04/04 04:19:39;;;;;;;5.38;2.58;;;22.50;64.60;;;;;;5015839;28;123036;-44
2021/04/04 04:22:09;;;;;;;4.00;2.50;;;22.30;63.20;;;;;;5008033;27;117826;-46
2021/04/04 04:24:41;;;;;;;5.32;2.58;;;22.20;63.20;;;;;;5015910;28;108445;-45
2021/04/04 04:27:11;;;;;;;4.68;2.42;;;22.10;62.60;;;;;;5012404;27;123549;-45
2021/04/04 04:29:43;;;;;;;5.78;2.75;;;22.20;63.30;;;;;;5012329;28;125450;-46
2021/04/04 04:32:25;;;;;;;9.90;2.55;;;22.10;62.50;;;;;;5006455;28;116487;-45
2021/04/04 04:34:57;;;;;;;5.45;2.40;;;22.30;62.80;;;;;;5016373;28;109823;-45
2021/04/04 04:37:27;;;;;;;9.50;2.55;;;22.40;62.20;;;;;;5011956;28;124087;-44
2021/04/04 04:39:59;;;;;;;9.27;3.05;;;22.40;61.80;;;;;;5016829;27;126217;-45
2021/04/04 04:42:33;;;;;;;8.10;2.58;;;22.50;61.40;;;;;;5015367;28;116438;-45
2021/04/04 04:45:06;;;;;;;6.97;2.53;;;22.50;61.30;;;;;;5016127;27;109853;-44
2021/04/04 04:47:37;;;;;;;5.68;2.90;;;22.40;60.00;;;;;;5008083;28;125132;-44
2021/04/04 04:50:10;;;;;;;5.97;2.60;;;22.20;60.20;;;;;;5012194;28;124528;-43
2021/04/04 04:52:42;;;;;;;6.05;2.80;;;22.10;60.20;;;;;;5015016;28;116919;-44
2021/04/04 04:55:13;;;;;;;5.10;2.40;;;22.00;60.30;;;;;;5014147;28;110790;-45
2021/04/04 04:57:45;;;;;;;4.57;2.35;;;22.00;60.10;;;;;;5015498;28;124815;-43
2021/04/04 05:00:17;;;;;;;5.82;2.40;;;22.00;60.00;;;;;;4991609;27;125432;-45
2021/04/04 05:02:49;;;;;;;3.55;2.38;;;21.90;59.90;;;;;;4999892;28;123582;-43
2021/04/04 05:05:21;;;;;;;6.35;2.58;;;21.90;59.90;;;;;;5012837;28;110233;-43
2021/04/04 05:07:55;;;;;;;3.28;2.13;;;21.90;60.00;;;;;;5017404;27;125221;-43
2021/04/04 05:10:29;;;;;;;5.85;2.67;;;21.90;59.90;;;;;;5018863;27;123376;-43
2021/04/04 05:13:05;;;;;;;3.13;2.13;;;21.80;59.70;;;;;;5012498;28;118951;-43
2021/04/04 05:15:36;;;;;;;4.50;2.53;;;21.80;59.70;;;;;;5008237;28;113784;-43
2021/04/04 05:18:08;;;;;;;5.75;2.13;;;21.80;59.30;;;;;;4995977;28;125849;-43
2021/04/04 05:20:39;;;;;;;4.82;1.80;;;21.80;59.00;;;;;;5011377;27;123031;-43
2021/04/04 05:23:08;;;;;;;5.13;2.13;;;21.80;58.80;;;;;;5014133;28;116466;-43
2021/04/04 05:25:38;;;;;;;4.82;1.70;;;21.70;58.50;;;;;;5013718;27;109816;-43
2021/04/04 05:28:09;;;;;;;4.28;2.25;;;21.70;58.70;;;;;;5018023;28;125796;-44
2021/04/04 05:30:40;;;;;;;4.32;2.50;;;21.80;58.70;;;;;;5000743;28;124082;-55
2021/04/04 05:33:11;;;;;;;4.72;2.35;;;21.80;58.50;;;;;;4986612;28;117671;-43
2021/04/04 05:35:44;;;;;;;6.15;2.42;;;21.80;58.50;;;;;;5004872;27;107816;-44
2021/04/04 05:38:17;;;;;;;5.88;2.83;;;21.90;58.70;;;;;;5011591;28;126510;-44
2021/04/04 05:40:47;;;;;;;3.58;2.40;;;22.00;58.40;;;;;;5016754;27;124483;-44
2021/04/04 05:43:26;;;;;;;5.68;2.63;;;22.10;58.40;;;;;;5000664;28;116106;-56
2021/04/04 05:46:05;;;;;;;5.82;2.75;;;22.20;57.90;;;;;;5010366;27;109921;-43
2021/04/04 05:48:43;;;;;;;9.68;3.90;;;22.10;57.50;;;;;;5016562;28;125199;-43
2021/04/04 05:51:31;;;;;;;4.13;2.67;;;22.10;57.50;;;;;;5015071;28;125747;-43
2021/04/04 05:54:20;;;;;;;6.22;2.50;;;22.20;57.50;;;;;;5027773;28;116197;-43
2021/04/04 05:56:56;;;;;;;5.70;3.00;;;22.10;57.70;;;;;;5017407;27;110323;-43
2021/04/04 05:59:41;;;;;;;6.68;2.78;;;22.20;58.00;;;;;;5019195;27;125677;-43
2021/04/04 06:02:30;;;;;;;4.78;2.20;;;22.20;58.10;;;;;;5009127;27;124336;-43
2021/04/04 06:05:17;;;;;;;4.88;2.50;;;22.20;58.50;;;;;;5011983;28;118341;-43
2021/04/04 06:07:58;;;;;;;6.53;2.42;;;22.30;58.70;;;;;;5010690;28;109952;-43
2021/04/04 06:10:54;;;;;;;5.93;2.05;;;22.20;59.00;;;;;;5009864;27;123850;-43
2021/04/04 06:14:03;;;;;;;8.55;2.60;;;22.30;59.20;;;;;;5020092;28;123547;-43
2021/04/04 06:16:45;;;;;;;8.45;2.10;;;22.40;59.00;;;;;;4968765;27;118086;-43
2021/04/04 06:19:43;;;;;;;6.03;2.30;;;22.40;58.50;;;;;;5022634;28;109887;-44
2021/04/04 06:22:18;;;;;;;5.15;2.20;;;22.40;57.80;;;;;;5017706;27;124033;-43
2021/04/04 06:25:05;;;;;;;5.70;2.42;;;22.50;57.30;;;;;;5013975;28;125245;-43
2021/04/04 06:27:45;;;;;;;5.15;2.25;;;22.40;57.60;;;;;;5008206;27;116940;-44
2021/04/04 06:30:46;;;;;;;3.67;1.80;;;22.30;57.80;;;;;;5009749;28;109944;-44
2021/04/04 06:33:17;;;;;;;2.92;2.00;;;22.40;58.60;;;;;;5014716;28;131699;-44
2021/04/04 06:36:18;;;;;;;6.72;2.10;;;22.50;58.90;;;;;;5015381;28;125974;-44
2021/04/04 06:39:06;;;;;;;6.53;2.17;;;22.50;59.00;;;;;;5017129;28;116326;-43
2021/04/04 06:41:52;;;;;;;4.10;2.40;;;22.50;59.20;;;;;;5017811;28;110322;-43
2021/04/04 06:45:05;;;;;;;3.70;2.10;;;22.60;59.50;;;;;;5013208;28;125760;-43
2021/04/04 06:48:00;;;;;;;6.80;2.03;;;22.50;59.60;;;;;;4959615;28;125654;-43
2021/04/04 06:50:40;;;;;;;2.85;1.90;;;22.50;59.90;;;;;;5019068;27;116602;-43
2021/04/04 06:53:29;;;;;;;5.28;1.77;;;22.50;60.20;;;;;;5022088;27;98387;-43
2021/04/04 06:56:14;;;;;;;4.45;2.20;;;22.50;60.40;;;;;;5024188;28;123603;-43
2021/04/04 06:59:12;;;;;;;3.17;1.77;;;22.50;60.90;;;;;;5014906;27;124415;-43
2021/04/04 07:02:05;;;;;;;3.75;2.25;;;22.50;61.20;;;;;;5008412;28;118552;-44
2021/04/04 07:04:56;;;;;;;4.45;1.90;;;22.50;61.70;;;;;;4999495;27;109668;-43
2021/04/04 07:08:00;;;;;;;6.55;2.30;;;22.50;63.20;;;;;;5013626;28;123406;-43
2021/04/04 07:10:54;;;;;;;6.10;1.90;;;22.50;64.40;;;;;;5012132;27;124251;-42
2021/04/04 07:14:03;;;;;;;6.78;2.20;;;22.40;64.60;;;;;;5012187;28;115582;-42
2021/04/04 07:16:41;;;;;;;8.70;2.20;;;22.40;65.10;;;;;;5008194;27;109576;-42
2021/04/04 07:19:42;;;;;;;7.68;2.50;;;22.30;65.50;;;;;;5010400;27;124590;-43
2021/04/04 07:22:49;;;;;;;8.20;3.08;;;22.30;65.60;;;;;;5006113;28;124491;-42
2021/04/04 07:25:38;;;;;;;7.00;2.50;;;22.30;66.30;;;;;;5012989;27;116203;-42
2021/04/04 07:28:32;;;;;;;8.97;3.30;;;22.20;66.20;;;;;;5014611;28;107831;-44
2021/04/04 07:31:09;;;;;;;10.13;2.40;;;22.10;66.70;;;;;;5006984;28;123744;-42
2021/04/04 07:33:49;;;;;;;9.15;2.50;;;22.10;67.50;;;;;;4997115;27;124803;-43
2021/04/04 07:36:24;;;;;;;8.90;2.60;;;22.20;66.70;;;;;;5011414;28;117122;-41
2021/04/04 07:39:03;;;;;;;7.18;2.60;;;22.10;66.70;;;;;;5019200;28;109835;-43
2021/04/04 07:41:48;;;;;;;8.25;2.65;;;22.10;66.70;;;;;;5019776;27;123201;-48
2021/04/04 07:44:21;;;;;;;12.05;2.80;;;22.20;66.70;;;;;;5018593;28;124768;-42
2021/04/04 07:47:24;;;;;;;8.90;2.15;;;22.20;66.70;;;;;;5012571;27;116898;-42
2021/04/04 07:50:07;;;;;;;11.93;2.60;;;22.20;66.70;;;;;;5010326;27;108107;-42
2021/04/04 07:52:49;;;;;;;14.38;2.50;;;22.20;66.60;;;;;;5006710;27;126321;-43
2021/04/04 07:55:45;;;;;;;5.88;2.30;;;22.10;66.60;;;;;;4996147;28;124621;-42
2021/04/04 07:58:38;;;;;;;13.43;2.03;;;22.10;66.60;;;;;;5011607;28;118457;-42
2021/04/04 08:01:16;;;;;;;10.20;2.17;;;22.10;66.80;;;;;;5011512;28;109858;-47
2021/04/04 08:04:35;;;;;;;10.68;3.15;;;22.10;66.80;;;;;;4999755;28;125164;-42
2021/04/04 08:07:16;;;;;;;10.57;2.28;;;22.10;66.80;;;;;;4998606;27;123204;-42
2021/04/04 08:10:09;;;;;;;9.93;2.63;;;22.00;66.90;;;;;;5006965;28;115062;-42
2021/04/04 08:12:50;;;;;;;5.38;2.17;;;22.00;67.20;;;;;;5018680;27;109587;-42
2021/04/04 08:15:45;;;;;;;9.60;2.92;;;21.90;67.10;;;;;;5018104;28;123900;-42
2021/04/04 08:18:16;;;;;;;6.93;1.83;;;21.90;67.40;;;;;;5009022;27;132852;-42
2021/04/04 08:20:50;;;;;;;8.18;2.72;;;21.90;67.60;;;;;;4996084;28;115052;-42
2021/04/04 08:23:26;;;;;;;6.57;2.33;;;21.90;67.50;;;;;;5002242;28;109561;-43
2021/04/04 08:26:02;;;;;;;9.50;3.15;;;21.90;67.20;;;;;;5013500;28;125541;-43
2021/04/04 08:28:47;;;;;;;11.98;2.80;;;21.80;67.50;;;;;;5020635;27;123117;-47
2021/04/04 08:31:47;;;;;;;8.07;2.17;;;21.80;67.80;;;;;;5005999;28;116702;-43
2021/04/04 08:34:23;;;;;;;16.00;4.47;;;21.70;67.90;;;;;;5017546;28;110819;-43
2021/04/04 08:37:14;;;;;;;33.95;24.80;;;21.70;67.70;;;;;;5017056;27;124534;-43
2021/04/04 08:39:56;;;;;;;31.80;25.63;;;21.70;67.60;;;;;;4997254;28;122865;-42
2021/04/04 08:42:30;;;;;;;15.32;10.25;;;21.70;68.10;;;;;;5011090;28;117415;-43
2021/04/04 08:45:13;;;;;;;16.77;6.93;;;21.70;67.90;;;;;;5001938;28;111356;-43
2021/04/04 08:47:47;;;;;;;12.05;4.47;;;21.60;68.20;;;;;;5019152;27;130649;-42
2021/04/04 08:50:20;;;;;;;9.13;4.07;;;21.50;68.10;;;;;;5011995;28;123191;-42
2021/04/04 08:53:14;;;;;;;10.18;4.55;;;21.50;68.40;;;;;;5014177;27;117822;-42
2021/04/04 08:55:49;;;;;;;11.52;3.40;;;21.60;68.40;;;;;;5012876;27;108307;-42
2021/04/04 08:58:32;;;;;;;21.85;6.43;;;21.60;68.20;;;;;;5005565;28;125526;-43
2021/04/04 09:01:10;;;;;;;12.60;3.63;;;21.60;68.10;;;;;;5015026;28;124431;-41
2021/04/04 09:03:47;;;;;;;14.65;4.72;;;21.60;68.10;;;;;;5023102;27;116974;-43
2021/04/04 09:06:20;;;;;;;12.07;3.85;;;21.60;68.20;;;;;;5023101;28;109041;-43
2021/04/04 09:08:51;;;;;;;10.27;2.90;;;21.60;68.70;;;;;;5020834;27;125288;-42
2021/04/04 09:11:23;;;;;;;10.47;3.00;;;21.60;68.20;;;;;;5021163;28;124995;-42
2021/04/04 09:14:00;;;;;;;10.27;2.88;;;21.50;68.20;;;;;;5019893;27;115977;-44
2021/04/04 09:16:32;;;;;;;13.27;2.92;;;21.50;67.90;;;;;;5012515;28;109052;-43
2021/04/04 09:19:03;;;;;;;12.93;3.30;;;21.40;68.40;;;;;;5013902;27;124968;-42
2021/04/04 09:21:38;;;;;;;8.18;2.50;;;21.50;68.30;;;;;;5011946;28;124777;-45
2021/04/04 09:24:10;;;;;;;11.32;3.15;;;21.40;68.40;;;;;;5017331;28;116580;-43
2021/04/04 09:26:41;;;;;;;11.73;3.42;;;21.40;68.30;;;;;;4997353;28;109292;-42
2021/04/04 09:29:12;;;;;;;9.77;2.88;;;21.40;68.10;;;;;;5010066;28;125350;-43
2021/04/04 09:31:50;;;;;;;10.10;2.75;;;21.10;68.40;;;;;;5007260;28;124700;-42
2021/04/04 09:34:21;;;;;;;14.82;3.75;;;20.90;69.30;;;;;;5004301;28;116611;-42
2021/04/04 09:36:52;;;;;;;14.98;3.67;;;21.00;69.10;;;;;;5014991;28;109746;-45
2021/04/04 09:39:29;;;;;;;10.88;2.55;;;21.10;68.80;;;;;;5017101;28;125545;-43
2021/04/04 09:42:01;;;;;;;14.73;3.78;;;21.10;68.50;;;;;;5007329;28;124842;-43
2021/04/04 09:44:34;;;;;;;13.52;3.15;;;21.20;68.50;;;;;;5015058;28;117951;-43
2021/04/04 09:47:06;;;;;;;17.08;3.38;;;21.20;68.20;;;;;;5016674;28;109837;-43
2021/04/04 09:49:48;;;;;;;15.60;4.43;;;21.20;67.60;;;;;;5015768;27;124674;-43
2021/04/04 09:52:29;;;;;;;14.93;3.25;;;21.20;67.70;;;;;;5022350;28;123336;-43
2021/04/04 09:55:14;;;;;;;16.40;3.33;;;21.20;68.10;;;;;;5018132;27;116985;-43
2021/04/04 09:58:04;;;;;;;16.27;3.53;;;21.20;67.90;;;;;;5013916;28;108951;-43
2021/04/04 10:00:38;;;;;;;15.60;4.25;;;21.10;67.90;;;;;;5008975;28;124971;-43
2021/04/04 10:03:12;;;;;;;21.55;4.10;;;21.00;67.70;;;;;;5013518;28;124340;-43
2021/04/04 10:05:45;;;;;;;14.23;3.70;;;21.00;68.10;;;;;;5019507;27;118662;-43
2021/04/04 10:08:25;;;;;;;11.15;3.47;;;21.10;68.10;;;;;;4986685;28;110102;-43
2021/04/04 10:10:59;;;;;;;15.52;2.92;;;21.00;67.90;;;;;;5017688;28;125703;-42
2021/04/04 10:13:33;;;;;;;16.42;4.15;;;21.00;68.10;;;;;;5016289;28;124424;-43
2021/04/04 10:16:26;;;;;;;15.32;3.30;;;21.00;67.80;;;;;;5014971;28;116259;-43
2021/04/04 10:19:08;;;;;;;11.82;2.97;;;21.10;67.70;;;;;;5018178;28;109504;-43
2021/04/04 10:22:01;;;;;;;13.27;3.92;;;21.00;68.00;;;;;;5011539;27;125126;-44
2021/04/04 10:24:33;;;;;;;18.08;3.40;;;20.90;68.40;;;;;;5025837;28;124305;-42
2021/04/04 10:27:30;;;;;;;14.77;3.35;;;20.80;68.00;;;;;;5022738;27;115084;-43
2021/04/04 10:30:20;;;;;;;9.52;2.83;;;20.70;68.50;;;;;;5017432;28;108429;-42
2021/04/04 10:32:54;;;;;;;10.77;3.35;;;20.70;68.40;;;;;;5024445;27;132374;-42
2021/04/04 10:35:39;;;;;;;15.10;4.22;;;20.60;68.30;;;;;;5021079;28;124052;-42
2021/04/04 10:38:31;;;;;;;15.15;2.97;;;20.60;68.60;;;;;;5021284;28;117494;-42
2021/04/04 10:41:03;;;;;;;13.25;2.78;;;20.60;68.40;;;;;;5026069;28;109899;-42
2021/04/04 10:43:45;;;;;;;16.38;2.83;;;20.60;68.40;;;;;;5019564;28;125462;-43
2021/04/04 10:46:18;;;;;;;14.73;3.53;;;20.60;68.50;;;;;;5017752;28;124669;-43
2021/04/04 10:48:50;;;;;;;8.75;3.00;;;20.50;68.40;;;;;;5020103;28;116862;-43
2021/04/04 10:51:21;;;;;;;14.07;3.65;;;20.50;68.60;;;;;;5025017;28;108754;-42
2021/04/04 10:53:52;;;;;;;17.65;4.05;;;20.50;69.00;;;;;;5019512;28;126253;-42
2021/04/04 10:56:23;;;;;;;14.93;3.35;;;20.60;68.50;;;;;;5005927;28;123308;-43
2021/04/04 10:58:56;;;;;;;11.10;3.22;;;20.50;68.40;;;;;;5008113;27;116554;-46
2021/04/04 11:01:30;;;;;;;10.27;2.85;;;20.50;68.30;;;;;;4999686;28;109993;-43
2021/04/04 11:04:01;;;;;;;13.32;3.80;;;20.50;68.10;;;;;;5012489;28;124897;-43
2021/04/04 11:06:32;;;;;;;12.97;4.30;;;20.50;68.10;;;;;;5016027;28;125116;-42
2021/04/04 11:09:03;;;;;;;15.60;3.72;;;20.30;67.70;;;;;;5017420;27;117734;-42
2021/04/04 11:11:33;;;;;;;14.57;2.88;;;20.30;68.60;;;;;;5013184;28;109129;-42
2021/04/04 11:14:06;;;;;;;20.00;3.83;;;20.20;68.70;;;;;;5016600;27;125529;-42
2021/04/04 11:16:40;;;;;;;9.85;3.47;;;20.10;67.60;;;;;;5011809;28;125513;-42
2021/04/04 11:19:15;;;;;;;14.98;2.83;;;20.00;68.50;;;;;;5013735;27;117126;-42
2021/04/04 11:21:45;;;;;;;10.00;3.28;;;19.90;68.00;;;;;;5018213;28;109625;-42
2021/04/04 11:24:19;;;;;;;11.75;3.55;;;19.80;68.90;;;;;;5021725;28;124477;-42
2021/04/04 11:26:59;;;;;;;11.43;2.58;;;19.70;69.00;;;;;;5018853;28;124979;-47
2021/04/04 11:29:32;;;;;;;16.02;3.03;;;19.70;68.90;;;;;;5012660;28;117715;-42
2021/04/04 11:32:22;;;;;;;14.02;3.40;;;19.70;68.90;;;;;;5016070;27;109541;-42
2021/04/04 11:35:04;;;;;;;13.88;2.90;;;19.70;68.60;;;;;;5014019;28;124095;-42
2021/04/04 11:37:40;;;;;;;13.23;3.22;;;19.70;68.30;;;;;;5020293;28;125406;-42
2021/04/04 11:40:26;;;;;;;12.48;2.85;;;19.70;69.10;;;;;;5012870;28;115310;-42
2021/04/04 11:43:29;;;;;;;15.60;2.92;;;19.70;68.80;;;;;;5007337;28;110186;-42
2021/04/04 11:46:01;;;;;;;13.18;3.65;;;19.70;68.60;;;;;;5006923;28;125220;-42
2021/04/04 11:48:39;;;;;;;15.90;2.90;;;19.70;68.50;;;;;;5010451;28;124679;-42
2021/04/04 11:51:14;;;;;;;13.55;2.97;;;19.60;68.30;;;;;;5013757;28;116158;-42
2021/04/04 11:53:50;;;;;;;14.65;2.80;;;19.60;68.50;;;;;;5009239;28;110622;-42
2021/04/04 11:56:44;;;;;;;12.07;2.60;;;19.60;68.70;;;;;;5022056;27;125601;-42
2021/04/04 11:59:18;;;;;;;8.68;2.58;;;19.50;68.40;;;;;;4995178;28;125038;-42
2021/04/04 12:01:50;;;;;;;10.23;3.35;;;19.40;68.50;;;;;;5002566;28;117040;-42
2021/04/04 12:04:44;;;;;;;12.00;3.33;;;19.40;68.80;;;;;;5012467;28;107990;-43
2021/04/04 12:07:18;;;;;;;13.80;3.47;;;19.40;68.70;;;;;;5013968;28;124688;-42
2021/04/04 12:09:48;;;;;;;15.20;3.15;;;19.40;68.90;;;;;;5016568;28;124828;-42
2021/04/04 12:12:19;;;;;;;13.30;3.40;;;19.40;68.70;;;;;;5013425;28;121454;-42
2021/04/04 12:14:52;;;;;;;15.55;3.40;;;19.40;68.80;;;;;;5014793;28;109995;-43
2021/04/04 12:17:29;;;;;;;15.02;3.80;;;19.40;69.60;;;;;;5001332;28;123763;-42
2021/04/04 12:20:01;;;;;;;15.55;3.30;;;19.40;68.80;;;;;;5009442;28;123255;-42
2021/04/04 12:22:40;;;;;;;11.75;2.65;;;19.40;68.60;;;;;;5012792;28;117853;-42
2021/04/04 12:25:12;;;;;;;14.13;3.75;;;19.30;69.00;;;;;;5014021;28;108121;-42
2021/04/04 12:27:46;;;;;;;15.25;3.35;;;19.20;69.10;;;;;;5011062;27;124185;-42
2021/04/04 12:30:29;;;;;;;10.18;2.60;;;19.30;69.30;;;;;;5013137;28;123983;-48
2021/04/04 12:33:17;;;;;;;12.05;2.60;;;19.30;69.20;;;;;;5010632;28;115418;-42
2021/04/04 12:35:52;;;;;;;13.07;3.10;;;19.30;69.30;;;;;;5010053;27;109952;-42
2021/04/04 12:38:25;;;;;;;13.90;3.15;;;19.30;69.40;;;;;;5016873;28;123464;-42
2021/04/04 12:41:01;;;;;;;13.57;2.85;;;19.20;69.50;;;;;;5006791;27;124482;-42
2021/04/04 12:43:39;;;;;;;13.05;3.47;;;19.20;69.40;;;;;;5012791;28;118342;-47
2021/04/04 12:46:11;;;;;;;16.38;2.72;;;19.20;69.50;;;;;;5001678;28;108281;-42
2021/04/04 12:48:43;;;;;;;21.15;4.18;;;19.20;69.80;;;;;;5016942;27;123799;-42
2021/04/04 12:51:14;;;;;;;12.88;3.13;;;19.20;69.90;;;;;;5009663;27;125359;-43
2021/04/04 12:53:50;;;;;;;14.60;3.53;;;19.20;69.80;;;;;;5006386;27;117421;-43
2021/04/04 12:56:36;;;;;;;15.60;4.18;;;19.10;69.90;;;;;;5013739;28;109323;-42
2021/04/04 12:59:16;;;;;;;7.80;2.42;;;19.00;69.70;;;;;;5016160;27;125001;-48
2021/04/04 13:01:48;;;;;;;10.82;3.33;;;19.00;70.00;;;;;;5004341;28;124283;-47
2021/04/04 13:04:22;;;;;;;14.45;3.58;;;18.90;70.20;;;;;;5016802;28;116128;-43
2021/04/04 13:06:53;;;;;;;17.20;4.10;;;18.90;70.40;;;;;;5011068;28;110491;-49
2021/04/04 13:09:24;;;;;;;14.85;2.80;;;18.90;70.60;;;;;;4991094;28;124024;-47
2021/04/04 13:11:56;;;;;;;17.33;3.47;;;18.90;71.10;;;;;;5017065;28;124363;-43
2021/04/04 13:14:28;;;;;;;13.48;3.15;;;19.00;70.50;;;;;;5021594;28;117868;-49
2021/04/04 13:16:59;;;;;;;14.82;2.90;;;18.90;70.40;;;;;;5015281;28;108064;-48
2021/04/04 13:19:37;;;;;;;19.17;3.27;;;18.80;70.60;;;;;;5012219;27;125460;-43
2021/04/04 13:22:10;;;;;;;16.38;2.92;;;18.90;70.80;;;;;;5015986;28;123243;-48
2021/04/04 13:24:39;;;;;;;10.38;2.67;;;18.80;71.50;;;;;;5006200;28;115387;-48
2021/04/04 13:27:09;;;;;;;15.13;4.05;;;18.80;70.90;;;;;;5013128;28;110539;-43